createdAt,value
2018-03-25T00:03:00.176Z,79.97
2018-03-25T00:06:02.638Z,80.15
2018-03-25T00:09:05.127Z,79.80
2018-03-25T00:12:07.678Z,79.17
2018-03-25T00:15:10.122Z,80.07
2018-03-25T00:18:12.611Z,81.06
2018-03-25T00:21:15.053Z,82.65
2018-03-25T00:24:17.532Z,83.32
2018-03-25T00:27:20.089Z,83.41
2018-03-25T00:30:22.564Z,84.30
2018-03-25T00:33:25.063Z,84.86
2018-03-25T00:36:27.633Z,84.95
2018-03-25T00:39:30.083Z,85.03
2018-03-25T00:42:32.704Z,85.46
2018-03-25T00:45:35.190Z,85.43
2018-03-25T00:48:37.713Z,85.74
2018-03-25T00:51:40.208Z,85.71
2018-03-25T00:54:42.709Z,86.43
2018-03-25T00:57:45.237Z,85.89
2018-03-25T01:00:47.723Z,86.34
2018-03-25T01:03:50.172Z,86.77
2018-03-25T01:06:52.644Z,86.19
2018-03-25T01:09:55.129Z,86.22
2018-03-25T01:12:57.601Z,86.25
2018-03-25T01:16:10.966Z,85.77
2018-03-25T01:19:13.424Z,86.67
2018-03-25T01:22:15.923Z,86.37
2018-03-25T01:25:18.398Z,86.19
2018-03-25T01:28:20.879Z,85.98
2018-03-25T01:31:23.416Z,84.55
2018-03-25T01:34:25.880Z,84.32
2018-03-25T01:37:28.353Z,84.85
2018-03-25T01:40:30.905Z,85.01
2018-03-25T01:43:33.470Z,85.44
2018-03-25T01:46:35.923Z,85.33
2018-03-25T01:49:38.394Z,85.11
2018-03-25T01:52:40.952Z,84.92
2018-03-25T01:55:43.414Z,85.26
2018-03-25T01:58:45.936Z,85.48
2018-03-25T02:01:48.413Z,85.64
2018-03-25T02:04:51.692Z,85.26
2018-03-25T02:07:54.144Z,85.53
2018-03-25T02:10:56.634Z,85.88
2018-03-25T02:13:59.131Z,86.01
2018-03-25T02:17:01.584Z,86.00
2018-03-25T02:20:04.139Z,85.80
2018-03-25T02:23:06.686Z,85.58
2018-03-25T02:26:09.240Z,85.09
2018-03-25T02:29:11.708Z,85.77
2018-03-25T02:32:14.194Z,85.93
2018-03-25T02:35:16.671Z,86.05
2018-03-25T02:38:19.289Z,85.45
2018-03-25T02:41:21.770Z,85.55
2018-03-25T02:44:24.216Z,84.87
2018-03-25T02:47:26.674Z,84.19
2018-03-25T02:50:29.131Z,84.64
2018-03-25T02:53:31.622Z,83.89
2018-03-25T02:56:34.076Z,84.42
2018-03-25T02:59:36.491Z,84.20
2018-03-25T03:02:39.077Z,84.10
2018-03-25T03:05:41.526Z,84.18
2018-03-25T03:08:44.096Z,84.69
2018-03-25T03:11:46.560Z,85.21
2018-03-25T03:14:49.125Z,85.48
2018-03-25T03:17:51.690Z,85.37
2018-03-25T03:20:54.186Z,85.99
2018-03-25T03:23:56.634Z,85.50
2018-03-25T03:26:59.082Z,85.48
2018-03-25T03:30:01.630Z,85.35
2018-03-25T03:33:04.102Z,85.29
2018-03-25T03:36:06.657Z,84.92
2018-03-25T03:39:09.154Z,84.57
2018-03-25T03:42:11.625Z,84.42
2018-03-25T03:45:14.186Z,84.42
2018-03-25T03:48:16.805Z,84.10
2018-03-25T03:51:19.265Z,84.10
2018-03-25T03:54:21.847Z,84.28
2018-03-25T03:57:24.386Z,84.33
2018-03-25T04:00:26.983Z,84.09
2018-03-25T04:03:29.432Z,83.87
2018-03-25T04:06:32.089Z,84.02
2018-03-25T04:09:34.612Z,84.52
2018-03-25T04:12:37.201Z,85.06
2018-03-25T04:15:39.768Z,85.53
2018-03-25T04:18:42.272Z,85.91
2018-03-25T04:21:44.765Z,86.24
2018-03-25T04:24:47.270Z,86.42
2018-03-25T04:27:49.728Z,86.61
2018-03-25T04:30:52.332Z,86.93
2018-03-25T04:33:54.786Z,87.05
2018-03-25T04:36:57.272Z,87.25
2018-03-25T04:39:59.753Z,87.29
2018-03-25T04:43:02.244Z,88.06
2018-03-25T04:46:04.726Z,87.61
2018-03-25T04:49:07.188Z,87.58
2018-03-25T04:52:09.655Z,87.15
2018-03-25T04:55:12.163Z,86.99
2018-03-25T04:58:14.726Z,86.74
2018-03-25T05:01:17.191Z,87.09
2018-03-25T05:04:19.746Z,87.60
2018-03-25T05:07:22.208Z,87.99
2018-03-25T05:10:24.771Z,88.02
2018-03-25T05:13:27.243Z,87.40
2018-03-25T05:16:29.705Z,86.82
2018-03-25T05:19:32.172Z,86.68
2018-03-25T05:22:34.719Z,86.83
2018-03-25T05:25:37.287Z,86.52
2018-03-25T05:28:39.842Z,86.93
2018-03-25T05:31:42.275Z,86.86
2018-03-25T05:34:44.786Z,87.06
2018-03-25T05:37:47.326Z,87.22
2018-03-25T05:40:49.931Z,87.40
2018-03-25T05:43:52.409Z,86.95
2018-03-25T05:46:54.871Z,88.06
2018-03-25T05:49:57.342Z,88.28
2018-03-25T05:52:59.842Z,88.06
2018-03-25T05:56:02.354Z,87.85
2018-03-25T05:59:04.837Z,87.86
2018-03-25T06:02:07.322Z,88.07
2018-03-25T06:05:09.881Z,87.27
2018-03-25T06:08:12.358Z,85.47
2018-03-25T06:11:14.918Z,82.84
2018-03-25T06:14:17.414Z,78.01
2018-03-25T06:17:19.908Z,77.00
2018-03-25T06:20:22.384Z,76.47
2018-03-25T06:23:25.601Z,76.66
2018-03-25T06:26:28.124Z,76.60
2018-03-25T06:29:30.719Z,75.83
2018-03-25T06:32:33.255Z,72.79
2018-03-25T06:35:35.813Z,74.84
2018-03-25T06:38:38.287Z,74.62
2018-03-25T06:41:40.841Z,74.84
2018-03-25T06:44:43.325Z,75.21
2018-03-25T06:47:45.856Z,75.05
2018-03-25T06:50:48.342Z,74.75
2018-03-25T06:53:50.884Z,75.94
2018-03-25T06:56:53.449Z,76.20
2018-03-25T06:59:55.989Z,80.43
2018-03-25T07:02:58.464Z,82.51
2018-03-25T07:06:01.039Z,81.44
2018-03-25T07:09:03.455Z,81.33
2018-03-25T07:12:05.929Z,80.63
2018-03-25T07:15:08.520Z,81.05
2018-03-25T07:18:11.047Z,80.45
2018-03-25T07:21:13.470Z,81.09
2018-03-25T07:24:16.089Z,81.09
2018-03-25T07:27:18.543Z,81.65
2018-03-25T07:30:21.129Z,81.44
2018-03-25T07:33:23.690Z,82.04
2018-03-25T07:36:26.196Z,82.43
2018-03-25T07:39:28.693Z,82.78
2018-03-25T07:42:31.152Z,81.94
2018-03-25T07:45:33.750Z,82.05
2018-03-25T07:48:36.222Z,81.91
2018-03-25T07:51:38.762Z,82.36
2018-03-25T07:54:41.224Z,81.17
2018-03-25T07:57:43.741Z,81.36
2018-03-25T08:00:46.349Z,81.12
2018-03-25T08:03:48.956Z,80.05
2018-03-25T08:06:51.398Z,79.29
2018-03-25T08:09:53.933Z,78.54
2018-03-25T08:12:56.494Z,76.92
2018-03-25T08:15:59.024Z,76.84
2018-03-25T08:19:01.546Z,76.50
2018-03-25T08:22:04.047Z,77.31
2018-03-25T08:25:06.655Z,75.76
2018-03-25T08:28:09.129Z,73.69
2018-03-25T08:31:11.522Z,73.89
2018-03-25T08:34:14.023Z,73.97
2018-03-25T08:37:16.541Z,72.33
2018-03-25T08:40:19.178Z,72.35
2018-03-25T08:43:21.693Z,71.35
2018-03-25T08:46:24.289Z,70.92
2018-03-25T08:49:26.765Z,70.36
2018-03-25T08:52:29.299Z,72.49
2018-03-25T08:55:31.825Z,70.26
2018-03-25T08:58:34.264Z,70.47
2018-03-25T09:01:36.773Z,68.84
2018-03-25T09:04:39.269Z,69.96
2018-03-25T09:07:41.768Z,68.74
2018-03-25T09:10:44.294Z,67.98
2018-03-25T09:13:46.760Z,68.51
2018-03-25T09:16:49.239Z,69.05
2018-03-25T09:19:51.720Z,68.30
2018-03-25T09:22:54.267Z,67.04
2018-03-25T09:25:56.683Z,65.11
2018-03-25T09:28:59.176Z,65.67
2018-03-25T09:32:01.676Z,63.92
2018-03-25T09:35:04.285Z,64.85
2018-03-25T09:38:06.819Z,65.72
2018-03-25T09:41:09.338Z,65.37
2018-03-25T09:44:11.806Z,63.34
2018-03-25T09:47:14.306Z,62.84
2018-03-25T09:50:16.944Z,64.25
2018-03-25T09:53:19.537Z,62.67
2018-03-25T09:56:22.089Z,59.01
2018-03-25T09:59:28.243Z,60.10
2018-03-25T10:02:31.620Z,58.73
2018-03-25T10:05:34.185Z,59.22
2018-03-25T10:08:36.678Z,59.99
2018-03-25T10:11:39.209Z,59.64
2018-03-25T10:14:41.762Z,59.71
2018-03-25T10:17:44.217Z,55.69
2018-03-25T10:20:46.794Z,57.05
2018-03-25T10:23:49.319Z,57.61
2018-03-25T10:26:51.824Z,57.39
2018-03-25T10:29:54.362Z,59.21
2018-03-25T10:32:56.882Z,59.35
2018-03-25T10:35:59.395Z,59.32
2018-03-25T10:39:17.172Z,56.49
2018-03-25T10:42:19.671Z,56.97
2018-03-25T10:45:22.240Z,58.82
2018-03-25T10:48:24.736Z,56.67
2018-03-25T10:51:29.411Z,56.89
2018-03-25T10:54:31.896Z,55.93
2018-03-25T10:57:34.402Z,56.44
2018-03-25T11:00:36.881Z,56.38
2018-03-25T11:03:39.411Z,54.85
2018-03-25T11:06:41.891Z,54.49
2018-03-25T11:09:44.396Z,54.35
2018-03-25T11:12:46.941Z,54.03
2018-03-25T11:15:49.481Z,52.79
2018-03-25T11:18:52.063Z,53.27
2018-03-25T11:21:54.691Z,54.17
2018-03-25T11:24:57.171Z,52.46
2018-03-25T11:27:59.697Z,51.89
2018-03-25T11:31:02.160Z,53.04
2018-03-25T11:34:04.705Z,55.35
2018-03-25T11:37:07.223Z,52.90
2018-03-25T11:40:09.848Z,50.04
2018-03-25T11:43:12.311Z,51.88
2018-03-25T11:46:14.833Z,52.15
2018-03-25T11:49:17.302Z,50.22
2018-03-25T11:52:19.837Z,51.21
2018-03-25T11:55:22.407Z,50.81
2018-03-25T11:58:24.870Z,51.40
2018-03-25T12:01:27.367Z,49.27
2018-03-25T12:04:29.982Z,48.15
2018-03-25T12:07:32.517Z,47.31
2018-03-25T12:10:35.021Z,49.46
2018-03-25T12:13:37.503Z,49.08
2018-03-25T12:16:40.027Z,46.09
2018-03-25T12:19:42.535Z,48.79
2018-03-25T12:22:45.016Z,49.82
2018-03-25T12:25:47.506Z,47.12
2018-03-25T12:28:50.192Z,48.68
2018-03-25T12:31:52.762Z,47.50
2018-03-25T12:34:55.322Z,48.06
2018-03-25T12:37:57.881Z,48.57
2018-03-25T12:41:00.447Z,50.04
2018-03-25T12:44:03.172Z,49.00
2018-03-25T12:47:05.774Z,49.92
2018-03-25T12:50:08.331Z,49.48
2018-03-25T12:53:10.817Z,49.18
2018-03-25T12:56:13.326Z,48.27
2018-03-25T12:59:15.877Z,48.84
2018-03-25T13:02:18.487Z,49.05
2018-03-25T13:05:21.005Z,48.48
2018-03-25T13:08:23.471Z,47.90
2018-03-25T13:11:25.963Z,47.45
2018-03-25T13:14:28.517Z,46.30
2018-03-25T13:17:31.001Z,45.82
2018-03-25T13:20:33.547Z,45.86
2018-03-25T13:23:36.042Z,47.88
2018-03-25T13:26:38.532Z,46.08
2018-03-25T13:29:41.104Z,45.21
2018-03-25T13:32:44.622Z,48.41
2018-03-25T13:35:47.186Z,46.38
2018-03-25T13:38:49.699Z,47.59
2018-03-25T13:41:52.175Z,46.12
2018-03-25T13:44:54.781Z,48.08
2018-03-25T13:47:57.279Z,47.98
2018-03-25T13:50:59.791Z,48.27
2018-03-25T13:54:02.317Z,49.16
2018-03-25T13:57:04.843Z,49.15
2018-03-25T14:00:07.383Z,49.02
2018-03-25T14:03:09.913Z,48.50
2018-03-25T14:06:12.453Z,47.46
2018-03-25T14:09:14.919Z,46.76
2018-03-25T14:12:17.429Z,47.13
2018-03-25T14:15:19.922Z,47.76
2018-03-25T14:18:22.500Z,48.02
2018-03-25T14:21:24.986Z,47.56
2018-03-25T14:24:27.560Z,47.63
2018-03-25T14:27:30.070Z,48.88
2018-03-25T14:30:32.602Z,47.02
2018-03-25T14:33:35.118Z,45.71
2018-03-25T14:36:37.640Z,47.38
2018-03-25T14:39:40.189Z,48.76
2018-03-25T14:42:42.770Z,47.51
2018-03-25T14:45:45.309Z,47.71
2018-03-25T14:48:47.829Z,47.78
2018-03-25T14:51:50.415Z,48.32
2018-03-25T14:54:52.955Z,49.80
2018-03-25T14:57:55.432Z,49.18
2018-03-25T15:00:57.962Z,50.05
2018-03-25T15:04:00.454Z,50.48
2018-03-25T15:07:03.053Z,50.82
2018-03-25T15:10:05.612Z,50.22
2018-03-25T15:13:08.275Z,50.10
2018-03-25T15:16:10.809Z,51.11
2018-03-25T15:19:13.293Z,50.68
2018-03-25T15:22:15.863Z,50.31
2018-03-25T15:25:18.443Z,50.99
2018-03-25T15:28:20.986Z,50.06
2018-03-25T15:31:23.625Z,49.98
2018-03-25T15:34:26.153Z,50.44
2018-03-25T15:37:29.670Z,50.00
2018-03-25T15:40:32.369Z,50.41
2018-03-25T15:43:34.949Z,49.17
2018-03-25T15:46:37.494Z,51.61
2018-03-25T15:49:40.185Z,50.04
2018-03-25T15:52:42.856Z,48.57
2018-03-25T15:55:45.554Z,50.21
2018-03-25T15:58:48.209Z,51.34
2018-03-25T16:01:50.715Z,50.59
2018-03-25T16:04:53.261Z,51.33
2018-03-25T16:07:55.904Z,52.11
2018-03-25T16:10:58.400Z,51.64
2018-03-25T16:14:01.036Z,52.57
2018-03-25T16:17:03.664Z,53.68
2018-03-25T16:20:06.243Z,52.82
2018-03-25T16:23:08.969Z,52.40
2018-03-25T16:26:11.550Z,52.83
2018-03-25T16:29:14.186Z,53.02
2018-03-25T16:32:16.759Z,52.78
2018-03-25T16:35:19.279Z,53.27
2018-03-25T16:38:21.885Z,53.44
2018-03-25T16:41:24.546Z,53.82
2018-03-25T16:44:27.128Z,54.24
2018-03-25T16:47:29.812Z,54.36
2018-03-25T16:50:32.277Z,52.14
2018-03-25T16:53:34.873Z,52.74
2018-03-25T16:56:37.563Z,53.83
2018-03-25T16:59:40.093Z,53.66
2018-03-25T17:02:42.630Z,54.44
2018-03-25T17:05:45.245Z,54.17
2018-03-25T17:08:47.792Z,54.13
2018-03-25T17:11:50.327Z,54.41
2018-03-25T17:14:52.941Z,54.62
2018-03-25T17:17:55.436Z,54.58
2018-03-25T17:20:58.014Z,54.38
2018-03-25T17:24:00.571Z,54.87
2018-03-25T17:27:03.132Z,54.49
2018-03-25T17:30:05.673Z,55.07
2018-03-25T17:33:08.320Z,54.91
2018-03-25T17:36:10.876Z,54.87
2018-03-25T17:39:13.393Z,55.19
2018-03-25T17:42:16.003Z,55.62
2018-03-25T17:45:19.392Z,56.07
2018-03-25T17:48:21.881Z,56.93
2018-03-25T17:51:24.511Z,57.92
2018-03-25T17:54:27.071Z,57.77
2018-03-25T17:57:29.599Z,56.40
2018-03-25T18:00:32.076Z,56.87
2018-03-25T18:03:34.616Z,58.32
2018-03-25T18:06:37.156Z,57.78
2018-03-25T18:09:39.787Z,58.82
2018-03-25T18:12:42.362Z,59.37
2018-03-25T18:15:44.888Z,59.57
2018-03-25T18:18:47.489Z,59.44
2018-03-25T18:21:50.143Z,60.04
2018-03-25T18:24:52.701Z,60.44
2018-03-25T18:27:55.266Z,60.63
2018-03-25T18:30:57.930Z,60.80
2018-03-25T18:34:00.497Z,61.09
2018-03-25T18:37:03.050Z,61.60
2018-03-25T18:40:05.605Z,61.88
2018-03-25T18:43:08.277Z,61.96
2018-03-25T18:46:10.785Z,62.28
2018-03-25T18:49:13.349Z,62.47
2018-03-25T18:52:15.968Z,62.57
2018-03-25T18:55:18.452Z,63.08
2018-03-25T18:58:21.107Z,63.05
2018-03-25T19:01:23.662Z,62.72
2018-03-25T19:04:26.413Z,62.83
2018-03-25T19:07:29.088Z,62.82
2018-03-25T19:10:31.757Z,63.02
2018-03-25T19:13:34.337Z,63.35
2018-03-25T19:16:37.077Z,63.23
2018-03-25T19:19:39.654Z,62.73
2018-03-25T19:22:42.256Z,62.27
2018-03-25T19:25:44.938Z,62.29
2018-03-25T19:28:47.562Z,62.48
2018-03-25T19:31:50.208Z,63.04
2018-03-25T19:34:52.907Z,63.17
2018-03-25T19:37:55.543Z,63.39
2018-03-25T19:40:58.057Z,63.10
2018-03-25T19:44:00.678Z,63.06
2018-03-25T19:47:03.213Z,63.01
2018-03-25T19:50:05.806Z,63.18
2018-03-25T19:53:08.358Z,63.28
2018-03-25T19:56:10.929Z,63.35
2018-03-25T19:59:13.409Z,63.48
2018-03-25T20:02:15.934Z,63.82
2018-03-25T20:05:18.500Z,63.76
2018-03-25T20:08:21.059Z,63.75
2018-03-25T20:11:23.625Z,63.61
2018-03-25T20:14:26.266Z,63.40
2018-03-25T20:17:28.660Z,63.40
2018-03-25T20:20:31.197Z,63.37
2018-03-25T20:23:33.768Z,62.04
2018-03-25T20:26:36.444Z,61.85
2018-03-25T20:29:38.893Z,61.50
2018-03-25T20:32:41.463Z,61.73
2018-03-25T20:35:43.975Z,62.44
2018-03-25T20:38:46.488Z,61.96
2018-03-25T20:41:49.064Z,62.73
2018-03-25T20:44:51.612Z,62.95
2018-03-25T20:47:54.178Z,63.26
2018-03-25T20:50:56.660Z,62.88
2018-03-25T20:53:59.214Z,63.56
2018-03-25T20:57:01.681Z,62.45
2018-03-25T21:00:04.228Z,63.31
2018-03-25T21:03:06.802Z,64.05
2018-03-25T21:06:09.277Z,63.47
2018-03-25T21:09:11.863Z,63.27
2018-03-25T21:12:14.372Z,64.19
2018-03-25T21:15:16.898Z,64.04
2018-03-25T21:18:19.368Z,63.96
2018-03-25T21:21:21.913Z,64.76
2018-03-25T21:24:24.519Z,64.92
2018-03-25T21:27:27.135Z,65.42
2018-03-25T21:30:29.749Z,65.95
2018-03-25T21:33:32.322Z,65.75
2018-03-25T21:36:34.950Z,65.50
2018-03-25T21:39:37.436Z,65.27
2018-03-25T21:42:39.954Z,65.30
2018-03-25T21:45:42.469Z,65.32
2018-03-25T21:48:44.959Z,65.72
2018-03-25T21:51:47.506Z,65.97
2018-03-25T21:54:50.061Z,66.07
2018-03-25T21:57:52.604Z,65.76
2018-03-25T22:00:55.134Z,65.79
2018-03-25T22:03:57.617Z,66.11
2018-03-25T22:07:00.130Z,66.43
2018-03-25T22:10:02.593Z,66.69
2018-03-25T22:13:05.135Z,66.65
2018-03-25T22:16:07.778Z,66.49
2018-03-25T22:19:10.350Z,66.56
2018-03-25T22:22:12.820Z,66.54
2018-03-25T22:25:15.339Z,66.84
2018-03-25T22:28:17.924Z,66.86
2018-03-25T22:31:20.455Z,66.87
2018-03-25T22:34:22.937Z,66.88
2018-03-25T22:37:25.416Z,66.94
2018-03-25T22:40:27.929Z,67.17
2018-03-25T22:43:30.451Z,67.30
2018-03-25T22:46:32.940Z,67.48
2018-03-25T22:49:35.460Z,67.45
2018-03-25T22:52:38.020Z,67.74
2018-03-25T22:55:40.535Z,67.33
2018-03-25T22:58:43.018Z,67.56
2018-03-25T23:01:45.528Z,67.75
2018-03-25T23:04:47.980Z,67.61
2018-03-25T23:07:50.583Z,67.33
2018-03-25T23:10:53.031Z,67.56
2018-03-25T23:13:55.561Z,67.83
2018-03-25T23:16:58.030Z,68.23
2018-03-25T23:20:00.526Z,68.46
2018-03-25T23:23:03.078Z,67.62
2018-03-25T23:26:05.549Z,67.30
2018-03-25T23:29:08.018Z,67.88
2018-03-25T23:32:10.601Z,66.99
2018-03-25T23:35:13.080Z,67.07
2018-03-25T23:38:15.580Z,67.00
2018-03-25T23:41:18.028Z,67.65
2018-03-25T23:44:20.518Z,68.30
2018-03-25T23:47:23.014Z,67.85
2018-03-25T23:50:25.584Z,67.75
2018-03-25T23:53:28.045Z,67.81
2018-03-25T23:56:30.574Z,68.76
2018-03-25T23:59:33.076Z,69.32
